createdAt,value
2017-02-20T00:00:59.044Z,0
2017-02-20T00:01:59.057Z,0
2017-02-20T00:02:59.041Z,0
2017-02-20T00:03:59.019Z,0
2017-02-20T00:04:59.014Z,0
2017-02-20T00:05:58.985Z,0
2017-02-20T00:06:59.003Z,0
2017-02-20T00:07:58.973Z,0
2017-02-20T00:08:58.946Z,0
2017-02-20T00:09:58.948Z,0
2017-02-20T00:10:58.942Z,0
2017-02-20T00:11:58.941Z,0
2017-02-20T00:12:58.936Z,0
2017-02-20T00:13:58.907Z,0
2017-02-20T00:14:58.912Z,0
2017-02-20T00:15:58.886Z,0
2017-02-20T00:16:58.868Z,0
2017-02-20T00:17:58.860Z,0
2017-02-20T00:18:58.848Z,0
2017-02-20T00:19:58.856Z,0
2017-02-20T00:20:58.843Z,0
2017-02-20T00:21:58.827Z,0
2017-02-20T00:22:58.852Z,0
2017-02-20T00:23:58.827Z,0
2017-02-20T00:24:58.783Z,0
2017-02-20T00:25:58.802Z,0
2017-02-20T00:26:58.774Z,0
2017-02-20T00:27:58.748Z,0
2017-02-20T00:28:58.763Z,0
2017-02-20T00:29:58.752Z,0
2017-02-20T00:30:58.737Z,0
2017-02-20T00:31:58.724Z,0
2017-02-20T00:32:58.735Z,0
2017-02-20T00:33:58.698Z,0
2017-02-20T00:34:58.689Z,0
2017-02-20T00:35:58.691Z,0
2017-02-20T00:36:58.677Z,0
2017-02-20T00:37:58.677Z,0
2017-02-20T00:38:58.638Z,0
2017-02-20T00:39:58.664Z,0
2017-02-20T00:40:58.605Z,0
2017-02-20T00:41:58.639Z,0
2017-02-20T00:42:58.626Z,0
2017-02-20T00:43:58.587Z,0
2017-02-20T00:44:58.568Z,0
2017-02-20T00:45:58.583Z,0
2017-02-20T00:46:58.587Z,0
2017-02-20T00:47:58.551Z,0
2017-02-20T00:48:58.549Z,0
2017-02-20T00:49:58.536Z,0
2017-02-20T00:50:58.521Z,0
2017-02-20T00:51:58.523Z,0
2017-02-20T00:52:58.544Z,0
2017-02-20T00:53:58.507Z,0
2017-02-20T00:54:58.485Z,0
2017-02-20T00:55:58.467Z,0
2017-02-20T00:56:58.440Z,0
2017-02-20T00:57:58.455Z,0
2017-02-20T00:58:58.451Z,0
2017-02-20T00:59:58.468Z,0
2017-02-20T01:00:58.398Z,0
2017-02-20T01:01:58.430Z,0
2017-02-20T01:02:58.037Z,0
2017-02-20T01:03:58.370Z,0
2017-02-20T01:04:58.370Z,0
2017-02-20T01:05:58.364Z,0
2017-02-20T01:06:58.338Z,0
2017-02-20T01:07:58.352Z,0
2017-02-20T01:08:58.329Z,0
2017-02-20T01:09:58.304Z,0
2017-02-20T01:10:58.311Z,0
2017-02-20T01:11:58.331Z,0
2017-02-20T01:12:58.289Z,0
2017-02-20T01:13:58.287Z,0
2017-02-20T01:14:58.285Z,0
2017-02-20T01:15:58.296Z,0
2017-02-20T01:16:58.279Z,0
2017-02-20T01:17:58.234Z,0
2017-02-20T01:18:58.236Z,0
2017-02-20T01:19:58.201Z,0
2017-02-20T01:20:58.210Z,0
2017-02-20T01:21:58.196Z,0
2017-02-20T01:22:58.173Z,0
2017-02-20T01:23:58.160Z,0
2017-02-20T01:24:58.162Z,0
2017-02-20T01:25:58.158Z,0
2017-02-20T01:26:58.129Z,0
2017-02-20T01:27:58.139Z,0
2017-02-20T01:28:58.112Z,0
2017-02-20T01:29:58.105Z,0
2017-02-20T01:30:58.111Z,0
2017-02-20T01:31:58.129Z,0
2017-02-20T01:32:58.099Z,0
2017-02-20T01:33:58.062Z,0
2017-02-20T01:34:58.052Z,0
2017-02-20T01:35:58.072Z,0
2017-02-20T01:36:58.059Z,0
2017-02-20T01:37:58.035Z,0
2017-02-20T01:38:58.009Z,0
2017-02-20T01:39:58.028Z,0
2017-02-20T01:40:57.996Z,0
2017-02-20T01:41:58.006Z,0
2017-02-20T01:42:57.970Z,0
2017-02-20T01:43:57.954Z,0
2017-02-20T01:44:57.956Z,0
2017-02-20T01:45:57.938Z,0
2017-02-20T01:46:57.954Z,0
2017-02-20T01:47:57.928Z,0
2017-02-20T01:48:57.898Z,0
2017-02-20T01:49:57.942Z,0
2017-02-20T01:50:57.890Z,0
2017-02-20T01:51:57.897Z,0
2017-02-20T01:52:57.875Z,0
2017-02-20T01:53:57.846Z,0
2017-02-20T01:54:57.870Z,0
2017-02-20T01:55:57.854Z,0
2017-02-20T01:56:57.859Z,0
2017-02-20T01:57:57.791Z,0
2017-02-20T01:58:57.801Z,0
2017-02-20T01:59:57.825Z,0
2017-02-20T02:00:57.779Z,0
2017-02-20T02:01:57.782Z,0
2017-02-20T02:02:57.758Z,0
2017-02-20T02:03:57.775Z,0
2017-02-20T02:04:57.771Z,0
2017-02-20T02:05:57.345Z,0
2017-02-20T02:06:57.735Z,0
2017-02-20T02:07:57.728Z,0
2017-02-20T02:08:57.713Z,0
2017-02-20T02:09:57.677Z,0
2017-02-20T02:10:57.671Z,0
2017-02-20T02:11:57.700Z,0
2017-02-20T02:12:57.684Z,0
2017-02-20T02:13:57.650Z,0
2017-02-20T02:14:57.635Z,0
2017-02-20T02:15:57.262Z,0
2017-02-20T02:16:57.218Z,0
2017-02-20T02:17:57.604Z,0
2017-02-20T02:18:57.622Z,0
2017-02-20T02:19:57.580Z,0
2017-02-20T02:20:57.574Z,0
2017-02-20T02:21:57.559Z,0
2017-02-20T02:22:57.547Z,0
2017-02-20T02:23:57.535Z,0
2017-02-20T02:24:57.551Z,0
2017-02-20T02:25:57.506Z,0
2017-02-20T02:26:57.501Z,0
2017-02-20T02:27:57.808Z,0
2017-02-20T02:28:57.518Z,0
2017-02-20T02:29:57.484Z,0
2017-02-20T02:30:57.467Z,0
2017-02-20T02:31:57.445Z,0
2017-02-20T02:32:57.436Z,0
2017-02-20T02:33:57.432Z,0
2017-02-20T02:34:57.409Z,0
2017-02-20T02:35:57.407Z,0
2017-02-20T02:36:57.418Z,0
2017-02-20T02:37:57.386Z,0
2017-02-20T02:38:57.418Z,0
2017-02-20T02:39:57.344Z,0
2017-02-20T02:40:57.354Z,0
2017-02-20T02:41:57.347Z,0
2017-02-20T02:42:57.337Z,0
2017-02-20T02:43:57.338Z,0
2017-02-20T02:44:57.310Z,0
2017-02-20T02:45:57.323Z,0
2017-02-20T02:46:57.304Z,0
2017-02-20T02:47:57.306Z,0
2017-02-20T02:48:57.277Z,0
2017-02-20T02:49:57.272Z,0
2017-02-20T02:50:57.232Z,0
2017-02-20T02:51:57.250Z,0
2017-02-20T02:52:57.228Z,0
2017-02-20T02:53:57.195Z,0
2017-02-20T02:54:57.222Z,0
2017-02-20T02:55:57.219Z,0
2017-02-20T02:56:57.221Z,0
2017-02-20T02:57:57.181Z,0
2017-02-20T02:58:57.206Z,0
2017-02-20T02:59:56.778Z,0
2017-02-20T03:00:57.136Z,0
2017-02-20T03:01:57.175Z,0
2017-02-20T03:02:57.120Z,0
2017-02-20T03:03:57.110Z,0
2017-02-20T03:04:57.099Z,0
2017-02-20T03:05:57.083Z,0
2017-02-20T03:06:57.062Z,0
2017-02-20T03:07:57.069Z,0
2017-02-20T03:08:57.080Z,0
2017-02-20T03:09:57.048Z,0
2017-02-20T03:10:57.051Z,0
2017-02-20T03:11:57.029Z,0
2017-02-20T03:12:56.632Z,0
2017-02-20T03:13:57.016Z,0
2017-02-20T03:14:57.033Z,0
2017-02-20T03:15:56.998Z,0
2017-02-20T03:16:56.980Z,0
2017-02-20T03:17:56.958Z,0
2017-02-20T03:18:56.958Z,0
2017-02-20T03:19:56.937Z,0
2017-02-20T03:20:56.934Z,0
2017-02-20T03:21:56.910Z,0
2017-02-20T03:22:56.917Z,0
2017-02-20T03:23:56.892Z,0
2017-02-20T03:24:56.907Z,0
2017-02-20T03:25:56.894Z,0
2017-02-20T03:26:56.858Z,0
2017-02-20T03:27:56.864Z,0
2017-02-20T03:28:56.876Z,0
2017-02-20T03:29:56.850Z,0
2017-02-20T03:30:56.837Z,0
2017-02-20T03:31:56.836Z,0
2017-02-20T03:32:56.801Z,0
2017-02-20T03:33:56.398Z,0
2017-02-20T03:34:56.792Z,0
2017-02-20T03:35:56.802Z,0
2017-02-20T03:36:56.757Z,0
2017-02-20T03:37:56.776Z,0
2017-02-20T03:38:56.737Z,0
2017-02-20T03:39:56.714Z,0
2017-02-20T03:40:56.739Z,0
2017-02-20T03:41:56.717Z,0
2017-02-20T03:42:56.703Z,0
2017-02-20T03:43:56.694Z,0
2017-02-20T03:44:56.667Z,0
2017-02-20T03:45:56.647Z,0
2017-02-20T03:46:56.667Z,0
2017-02-20T03:47:56.635Z,0
2017-02-20T03:48:56.622Z,0
2017-02-20T03:49:56.229Z,0
2017-02-20T03:50:56.619Z,0
2017-02-20T03:51:56.612Z,0
2017-02-20T03:52:56.836Z,0
2017-02-20T03:53:56.601Z,0
2017-02-20T03:54:56.171Z,0
2017-02-20T03:55:56.557Z,0
2017-02-20T03:56:56.564Z,0
2017-02-20T03:57:56.541Z,0
2017-02-20T03:58:56.546Z,0
2017-02-20T03:59:56.521Z,0
2017-02-20T04:00:56.517Z,0
2017-02-20T04:01:56.495Z,0
2017-02-20T04:02:56.474Z,0
2017-02-20T04:03:56.465Z,0
2017-02-20T04:04:56.466Z,0
2017-02-20T04:05:56.468Z,0
2017-02-20T04:06:56.463Z,0
2017-02-20T04:07:56.454Z,0
2017-02-20T04:08:56.406Z,0
2017-02-20T04:09:56.418Z,0
2017-02-20T04:10:56.411Z,0
2017-02-20T04:11:56.384Z,0
2017-02-20T04:12:56.381Z,0
2017-02-20T04:13:56.378Z,0
2017-02-20T04:14:56.409Z,0
2017-02-20T04:15:56.341Z,0
2017-02-20T04:16:56.338Z,0
2017-02-20T04:17:56.326Z,0
2017-02-20T04:18:56.336Z,0
2017-02-20T04:19:56.303Z,0
2017-02-20T04:20:56.301Z,0
2017-02-20T04:21:55.902Z,0
2017-02-20T04:22:56.290Z,0
2017-02-20T04:23:56.274Z,0
2017-02-20T04:24:56.252Z,0
2017-02-20T04:25:56.259Z,0
2017-02-20T04:26:56.235Z,0
2017-02-20T04:27:56.245Z,0
2017-02-20T04:28:56.221Z,0
2017-02-20T04:29:56.212Z,0
2017-02-20T04:30:56.207Z,0
2017-02-20T04:31:56.181Z,0
2017-02-20T04:32:56.224Z,0
2017-02-20T04:33:56.179Z,0
2017-02-20T04:34:56.156Z,0
2017-02-20T04:35:56.149Z,0
2017-02-20T04:36:56.145Z,0
2017-02-20T04:37:56.142Z,0
2017-02-20T04:38:56.132Z,0
2017-02-20T04:39:56.089Z,0
2017-02-20T04:40:56.090Z,0
2017-02-20T04:41:56.091Z,0
2017-02-20T04:42:56.082Z,0
2017-02-20T04:43:56.073Z,0
2017-02-20T04:44:56.093Z,0
2017-02-20T04:45:56.029Z,0
2017-02-20T04:46:56.031Z,0
2017-02-20T04:47:56.028Z,0
2017-02-20T04:48:56.014Z,0
2017-02-20T04:49:56.004Z,0
2017-02-20T04:50:56.007Z,0
2017-02-20T04:51:55.974Z,0
2017-02-20T04:52:55.976Z,0
2017-02-20T04:53:55.947Z,0
2017-02-20T04:54:55.953Z,0
2017-02-20T04:55:55.940Z,0
2017-02-20T04:56:55.912Z,0
2017-02-20T04:57:55.921Z,0
2017-02-20T04:58:55.916Z,0
2017-02-20T04:59:55.884Z,0
2017-02-20T05:00:55.884Z,0
2017-02-20T05:01:55.868Z,0
2017-02-20T05:02:55.858Z,0
2017-02-20T05:03:55.860Z,0
2017-02-20T05:04:55.834Z,0
2017-02-20T05:05:55.829Z,0
2017-02-20T05:06:55.830Z,0
2017-02-20T05:07:55.816Z,0
2017-02-20T05:08:55.782Z,0
2017-02-20T05:09:55.836Z,0
2017-02-20T05:10:55.766Z,0
2017-02-20T05:11:55.763Z,0
2017-02-20T05:12:55.750Z,0
2017-02-20T05:13:55.757Z,0
2017-02-20T05:14:55.733Z,0
2017-02-20T05:15:55.723Z,0
2017-02-20T05:16:55.719Z,0
2017-02-20T05:17:55.692Z,0
2017-02-20T05:18:55.710Z,0
2017-02-20T05:19:55.698Z,0
2017-02-20T05:20:55.268Z,0
2017-02-20T05:21:55.658Z,0
2017-02-20T05:22:55.647Z,0
2017-02-20T05:23:55.643Z,0
2017-02-20T05:24:55.620Z,0
2017-02-20T05:25:55.651Z,0
2017-02-20T05:26:55.595Z,0
2017-02-20T05:27:55.574Z,0
2017-02-20T05:28:55.563Z,0
2017-02-20T05:29:55.563Z,0
2017-02-20T05:30:55.564Z,0
2017-02-20T05:31:55.537Z,0
2017-02-20T05:32:55.152Z,0
2017-02-20T05:33:55.525Z,0
2017-02-20T05:34:55.511Z,0
2017-02-20T05:35:55.493Z,0
2017-02-20T05:36:55.497Z,0
2017-02-20T05:37:55.091Z,0
2017-02-20T05:38:55.719Z,0
2017-02-20T05:39:55.465Z,0
2017-02-20T05:40:55.512Z,0
2017-02-20T05:41:55.447Z,0
2017-02-20T05:42:55.421Z,0
2017-02-20T05:43:55.426Z,0
2017-02-20T05:44:55.414Z,0
2017-02-20T05:45:55.413Z,0
2017-02-20T05:46:55.397Z,0
2017-02-20T05:47:55.368Z,0
2017-02-20T05:48:55.360Z,0
2017-02-20T05:49:55.361Z,0
2017-02-20T05:50:55.353Z,0
2017-02-20T05:51:55.349Z,0
2017-02-20T05:52:55.325Z,0
2017-02-20T05:53:55.336Z,0
2017-02-20T05:54:55.310Z,0
2017-02-20T05:55:55.289Z,0
2017-02-20T05:56:55.316Z,0
2017-02-20T05:57:55.296Z,0
2017-02-20T05:58:55.270Z,0
2017-02-20T05:59:55.269Z,0
2017-02-20T06:00:55.255Z,0
2017-02-20T06:01:55.227Z,0
2017-02-20T06:02:55.227Z,5
2017-02-20T06:03:55.216Z,5
2017-02-20T06:04:55.203Z,5
2017-02-20T06:05:55.191Z,5
2017-02-20T06:06:55.189Z,5
2017-02-20T06:07:55.215Z,5
2017-02-20T06:08:55.165Z,5
2017-02-20T06:09:55.141Z,5
2017-02-20T06:10:55.145Z,5
2017-02-20T06:11:55.134Z,5
2017-02-20T06:12:55.136Z,5
2017-02-20T06:13:55.128Z,5
2017-02-20T06:14:55.140Z,5
2017-02-20T06:15:55.081Z,5
2017-02-20T06:16:55.085Z,5
2017-02-20T06:17:55.054Z,5
2017-02-20T06:18:55.054Z,5
2017-02-20T06:19:55.065Z,10
2017-02-20T06:20:54.654Z,10
2017-02-20T06:21:55.017Z,10
2017-02-20T06:22:55.007Z,10
2017-02-20T06:23:55.000Z,10
2017-02-20T06:24:55.023Z,15
2017-02-20T06:25:54.981Z,15
2017-02-20T06:26:55.013Z,15
2017-02-20T06:27:54.955Z,20
2017-02-20T06:28:54.946Z,20
2017-02-20T06:29:54.953Z,20
2017-02-20T06:30:54.921Z,20
2017-02-20T06:31:54.909Z,20
2017-02-20T06:32:54.919Z,20
2017-02-20T06:33:54.911Z,20
2017-02-20T06:34:54.881Z,20
2017-02-20T06:35:54.869Z,25
2017-02-20T06:36:54.860Z,25
2017-02-20T06:37:54.895Z,25
2017-02-20T06:38:54.845Z,25
2017-02-20T06:39:54.846Z,30
2017-02-20T06:40:54.832Z,30
2017-02-20T06:41:54.430Z,30
2017-02-20T06:42:54.820Z,35
2017-02-20T06:43:54.796Z,40
2017-02-20T06:44:54.789Z,45
2017-02-20T06:45:54.782Z,50
2017-02-20T06:46:54.760Z,55
2017-02-20T06:47:54.749Z,55
2017-02-20T06:48:54.740Z,55
2017-02-20T06:49:54.744Z,55
2017-02-20T06:50:54.709Z,55
2017-02-20T06:51:54.301Z,55
2017-02-20T06:52:54.697Z,55
2017-02-20T06:53:54.310Z,60
2017-02-20T06:54:54.299Z,60
2017-02-20T06:55:54.711Z,65
2017-02-20T06:56:54.685Z,65
2017-02-20T06:57:54.660Z,75
2017-02-20T06:58:54.628Z,75
2017-02-20T06:59:54.638Z,75
2017-02-20T07:00:54.614Z,80
2017-02-20T07:01:54.603Z,80
2017-02-20T07:02:54.592Z,80
2017-02-20T07:03:54.585Z,85
2017-02-20T07:04:54.570Z,90
2017-02-20T07:05:54.598Z,90
2017-02-20T07:06:54.570Z,80
2017-02-20T07:07:54.542Z,80
2017-02-20T07:08:54.536Z,85
2017-02-20T07:09:54.536Z,85
2017-02-20T07:10:54.528Z,85
2017-02-20T07:11:54.517Z,80
2017-02-20T07:12:54.490Z,80
2017-02-20T07:13:54.534Z,80
2017-02-20T07:14:54.477Z,70
2017-02-20T07:15:54.452Z,65
2017-02-20T07:16:54.476Z,60
2017-02-20T07:17:54.459Z,65
2017-02-20T07:18:54.432Z,75
2017-02-20T07:19:54.424Z,80
2017-02-20T07:20:54.420Z,90
2017-02-20T07:21:54.419Z,90
2017-02-20T07:22:54.405Z,85
2017-02-20T07:23:54.403Z,85
2017-02-20T07:24:54.387Z,90
2017-02-20T07:25:54.376Z,100
2017-02-20T07:26:54.366Z,105
2017-02-20T07:27:54.378Z,105
2017-02-20T07:28:54.332Z,115
2017-02-20T07:29:54.330Z,120
2017-02-20T07:30:54.317Z,120
2017-02-20T07:31:54.300Z,120
2017-02-20T07:32:54.297Z,125
2017-02-20T07:33:54.294Z,130
2017-02-20T07:34:54.267Z,130
2017-02-20T07:35:54.265Z,130
2017-02-20T07:36:54.283Z,130
2017-02-20T07:37:54.254Z,135
2017-02-20T07:38:54.251Z,135
2017-02-20T07:39:54.227Z,140
2017-02-20T07:40:54.236Z,150
2017-02-20T07:41:54.209Z,160
2017-02-20T07:42:54.231Z,160
2017-02-20T07:43:54.208Z,145
2017-02-20T07:44:54.187Z,125
2017-02-20T07:45:54.178Z,120
2017-02-20T07:46:54.167Z,125
2017-02-20T07:47:54.157Z,125
2017-02-20T07:48:54.146Z,120
2017-02-20T07:49:54.166Z,115
2017-02-20T07:50:54.130Z,110
2017-02-20T07:51:54.110Z,110
2017-02-20T07:52:54.157Z,110
2017-02-20T07:53:54.106Z,115
2017-02-20T07:54:54.094Z,115
2017-02-20T07:55:54.095Z,125
2017-02-20T07:56:54.088Z,130
2017-02-20T07:57:54.068Z,130
2017-02-20T07:58:54.370Z,130
2017-02-20T07:59:54.038Z,135
2017-02-20T08:00:53.642Z,150
2017-02-20T08:01:54.019Z,150
2017-02-20T08:02:54.032Z,135
2017-02-20T08:03:54.036Z,130
2017-02-20T08:04:53.994Z,145
2017-02-20T08:05:54.007Z,150
2017-02-20T08:06:53.984Z,135
2017-02-20T08:07:53.987Z,125
2017-02-20T08:08:53.961Z,130
2017-02-20T08:09:53.963Z,140
2017-02-20T08:10:53.939Z,135
2017-02-20T08:11:53.951Z,130
2017-02-20T08:12:53.965Z,125
2017-02-20T08:13:53.920Z,135
2017-02-20T08:14:53.922Z,145
2017-02-20T08:15:53.910Z,140
2017-02-20T08:16:53.910Z,115
2017-02-20T08:17:53.915Z,115
2017-02-20T08:18:53.881Z,100
2017-02-20T08:19:53.868Z,105
2017-02-20T08:20:53.863Z,110
2017-02-20T08:21:53.866Z,110
2017-02-20T08:22:53.847Z,110
2017-02-20T08:23:53.867Z,110
2017-02-20T08:24:53.809Z,115
2017-02-20T08:25:53.809Z,135
2017-02-20T08:26:53.805Z,170
2017-02-20T08:27:53.806Z,185
2017-02-20T08:28:53.408Z,190
2017-02-20T08:29:53.799Z,195
2017-02-20T08:30:53.776Z,200
2017-02-20T08:31:53.768Z,190
2017-02-20T08:32:53.753Z,210
2017-02-20T08:33:53.753Z,220
2017-02-20T08:34:53.745Z,215
2017-02-20T08:35:53.710Z,225
2017-02-20T08:36:53.733Z,250
2017-02-20T08:37:53.757Z,250
2017-02-20T08:38:53.724Z,260
2017-02-20T08:39:53.692Z,250
2017-02-20T08:40:53.698Z,250
2017-02-20T08:41:53.683Z,250
2017-02-20T08:42:53.647Z,250
2017-02-20T08:43:53.660Z,260
2017-02-20T08:44:53.640Z,270
2017-02-20T08:45:53.636Z,285
2017-02-20T08:46:53.231Z,285
2017-02-20T08:47:53.634Z,270
2017-02-20T08:48:53.607Z,250
2017-02-20T08:49:53.618Z,240
2017-02-20T08:50:53.602Z,220
2017-02-20T08:51:53.599Z,220
2017-02-20T08:52:53.185Z,220
2017-02-20T08:53:53.589Z,225
2017-02-20T08:54:53.556Z,220
2017-02-20T08:55:53.559Z,220
2017-02-20T08:56:53.151Z,240
2017-02-20T08:57:53.535Z,255
2017-02-20T08:58:53.821Z,275
2017-02-20T08:59:53.531Z,280
2017-02-20T09:00:53.507Z,255
2017-02-20T09:01:53.494Z,235
2017-02-20T09:02:53.498Z,215
2017-02-20T09:03:53.505Z,200
2017-02-20T09:04:53.473Z,185
2017-02-20T09:05:53.485Z,190
2017-02-20T09:06:53.094Z,190
2017-02-20T09:07:53.133Z,190
2017-02-20T09:08:53.483Z,200
2017-02-20T09:09:53.444Z,215
2017-02-20T09:10:53.430Z,235
2017-02-20T09:11:53.052Z,255
2017-02-20T09:12:53.419Z,270
2017-02-20T09:13:53.431Z,285
2017-02-20T09:14:53.386Z,295
2017-02-20T09:15:53.407Z,310
2017-02-20T09:16:53.420Z,325
2017-02-20T09:17:53.401Z,325
2017-02-20T09:18:52.984Z,320
2017-02-20T09:19:52.615Z,310
2017-02-20T09:20:53.354Z,300
2017-02-20T09:21:52.957Z,290
2017-02-20T09:22:52.956Z,290
2017-02-20T09:23:53.355Z,290
2017-02-20T09:24:53.354Z,290
2017-02-20T09:25:53.310Z,285
2017-02-20T09:26:53.311Z,280
2017-02-20T09:27:52.927Z,275
2017-02-20T09:28:53.316Z,270
2017-02-20T09:29:52.526Z,265
2017-02-20T09:30:53.293Z,265
2017-02-20T09:31:53.291Z,270
2017-02-20T09:32:52.880Z,285
2017-02-20T09:33:53.300Z,305
2017-02-20T09:34:53.300Z,320
2017-02-20T09:35:52.869Z,330
2017-02-20T09:36:53.291Z,340
2017-02-20T09:37:52.843Z,360
2017-02-20T09:38:52.849Z,380
2017-02-20T09:39:53.459Z,400
2017-02-20T09:40:52.872Z,425
2017-02-20T09:41:52.810Z,430
2017-02-20T09:42:52.822Z,435
2017-02-20T09:43:53.209Z,435
2017-02-20T09:44:52.817Z,440
2017-02-20T09:45:53.184Z,420
2017-02-20T09:46:52.807Z,405
2017-02-20T09:47:53.181Z,380
2017-02-20T09:48:52.783Z,360
2017-02-20T09:49:52.773Z,345
2017-02-20T09:50:52.770Z,340
2017-02-20T09:51:53.161Z,330
2017-02-20T09:52:52.771Z,325
2017-02-20T09:53:52.348Z,315
2017-02-20T09:54:53.117Z,315
2017-02-20T09:55:53.132Z,315
2017-02-20T09:56:53.113Z,320
2017-02-20T09:57:53.105Z,315
2017-02-20T09:58:53.142Z,315
2017-02-20T09:59:52.716Z,315
2017-02-20T10:00:53.119Z,315
2017-02-20T10:01:53.081Z,320
2017-02-20T10:02:52.683Z,325
2017-02-20T10:03:53.068Z,320
2017-02-20T10:04:52.673Z,315
2017-02-20T10:05:53.068Z,320
2017-02-20T10:06:53.042Z,310
2017-02-20T10:07:52.660Z,315
2017-02-20T10:08:53.039Z,330
2017-02-20T10:09:53.021Z,345
2017-02-20T10:10:53.031Z,350
2017-02-20T10:11:52.250Z,350
2017-02-20T10:12:53.015Z,350
2017-02-20T10:13:52.996Z,340
2017-02-20T10:14:53.003Z,340
2017-02-20T10:15:53.020Z,340
2017-02-20T10:16:52.998Z,340
2017-02-20T10:17:52.964Z,345
2017-02-20T10:18:52.975Z,350
2017-02-20T10:19:52.976Z,355
2017-02-20T10:20:52.982Z,360
2017-02-20T10:21:52.957Z,365
2017-02-20T10:22:52.962Z,355
2017-02-20T10:23:52.950Z,350
2017-02-20T10:24:52.960Z,350
2017-02-20T10:25:52.925Z,340
2017-02-20T10:26:52.929Z,340
2017-02-20T10:27:52.917Z,345
2017-02-20T10:28:52.925Z,350
2017-02-20T10:29:52.913Z,355
2017-02-20T10:30:52.902Z,365
2017-02-20T10:31:52.910Z,370
2017-02-20T10:32:52.893Z,375
2017-02-20T10:33:52.896Z,380
2017-02-20T10:34:52.868Z,375
2017-02-20T10:35:52.889Z,375
2017-02-20T10:36:52.888Z,375
2017-02-20T10:37:52.484Z,375
2017-02-20T10:38:52.864Z,370
2017-02-20T10:39:52.861Z,365
2017-02-20T10:40:52.826Z,360
2017-02-20T10:41:52.841Z,335
2017-02-20T10:42:52.844Z,315
2017-02-20T10:43:52.846Z,285
2017-02-20T10:44:52.818Z,265
2017-02-20T10:45:52.825Z,265
2017-02-20T10:46:52.839Z,275
2017-02-20T10:47:52.788Z,290
2017-02-20T10:48:52.800Z,300
2017-02-20T10:49:52.030Z,295
2017-02-20T10:50:52.778Z,285
2017-02-20T10:51:52.789Z,285
2017-02-20T10:52:52.757Z,300
2017-02-20T10:53:52.011Z,325
2017-02-20T10:54:52.758Z,345
2017-02-20T10:55:52.767Z,370
2017-02-20T10:56:52.753Z,395
2017-02-20T10:57:52.768Z,415
2017-02-20T10:58:52.732Z,410
2017-02-20T10:59:52.739Z,400
2017-02-20T11:00:52.326Z,400
2017-02-20T11:01:52.722Z,405
2017-02-20T11:02:52.740Z,395
2017-02-20T11:03:52.712Z,390
2017-02-20T11:04:52.709Z,385
2017-02-20T11:05:52.710Z,370
2017-02-20T11:06:52.720Z,355
2017-02-20T11:07:52.706Z,340
2017-02-20T11:08:52.692Z,335
2017-02-20T11:09:52.699Z,335
2017-02-20T11:10:52.685Z,360
2017-02-20T11:11:52.653Z,360
2017-02-20T11:12:52.660Z,345
2017-02-20T11:13:52.656Z,330
2017-02-20T11:14:52.668Z,310
2017-02-20T11:15:52.642Z,310
2017-02-20T11:16:52.650Z,305
2017-02-20T11:17:51.854Z,295
2017-02-20T11:18:52.233Z,285
2017-02-20T11:19:52.619Z,290
2017-02-20T11:20:52.227Z,295
2017-02-20T11:21:52.202Z,305
2017-02-20T11:22:52.618Z,325
2017-02-20T11:23:52.603Z,325
2017-02-20T11:24:52.201Z,320
2017-02-20T11:25:52.611Z,295
2017-02-20T11:26:52.202Z,290
2017-02-20T11:27:52.170Z,315
2017-02-20T11:28:52.602Z,365
2017-02-20T11:29:52.170Z,330
2017-02-20T11:30:52.153Z,330
2017-02-20T11:31:52.574Z,320
2017-02-20T11:32:52.544Z,320
2017-02-20T11:33:52.154Z,320
2017-02-20T11:34:52.558Z,315
2017-02-20T11:35:52.530Z,270
2017-02-20T11:36:52.124Z,260
2017-02-20T11:37:52.531Z,265
2017-02-20T11:38:52.534Z,270
2017-02-20T11:39:52.489Z,260
2017-02-20T11:40:52.112Z,255
2017-02-20T11:41:52.498Z,255
2017-02-20T11:42:52.497Z,265
2017-02-20T11:43:52.103Z,265
2017-02-20T11:44:52.081Z,265
2017-02-20T11:45:52.480Z,245
2017-02-20T11:46:52.099Z,225
2017-02-20T11:47:52.083Z,230
2017-02-20T11:48:52.459Z,225
2017-02-20T11:49:52.488Z,235
2017-02-20T11:50:52.471Z,245
2017-02-20T11:51:52.437Z,240
2017-02-20T11:52:52.449Z,225
2017-02-20T11:53:52.460Z,220
2017-02-20T11:54:51.932Z,220
2017-02-20T11:55:52.029Z,245
2017-02-20T11:56:52.413Z,270
2017-02-20T11:57:52.405Z,270
2017-02-20T11:58:52.412Z,275
2017-02-20T11:59:52.011Z,275
2017-02-20T12:00:52.401Z,265
2017-02-20T12:01:51.993Z,260
2017-02-20T12:02:52.386Z,245
2017-02-20T12:03:52.388Z,230
2017-02-20T12:04:51.970Z,225
2017-02-20T12:05:52.008Z,230
2017-02-20T12:06:52.642Z,215
2017-02-20T12:07:52.336Z,205
2017-02-20T12:08:51.960Z,195
2017-02-20T12:09:52.335Z,210
2017-02-20T12:10:52.323Z,210
2017-02-20T12:11:51.933Z,210
2017-02-20T12:12:51.919Z,225
2017-02-20T12:13:52.296Z,260
2017-02-20T12:14:52.320Z,270
2017-02-20T12:15:51.899Z,260
2017-02-20T12:16:52.321Z,260
2017-02-20T12:17:51.887Z,250
2017-02-20T12:18:51.874Z,250
2017-02-20T12:19:52.264Z,250
2017-02-20T12:20:51.876Z,235
2017-02-20T12:21:51.881Z,240
2017-02-20T12:22:51.870Z,240
2017-02-20T12:23:51.887Z,230
2017-02-20T12:24:51.862Z,240
2017-02-20T12:25:51.844Z,245
2017-02-20T12:26:52.235Z,245
2017-02-20T12:27:51.840Z,255
2017-02-20T12:28:51.823Z,250
2017-02-20T12:29:51.820Z,255
2017-02-20T12:30:52.204Z,265
2017-02-20T12:31:52.204Z,260
2017-02-20T12:32:52.198Z,265
2017-02-20T12:33:51.788Z,290
2017-02-20T12:34:52.179Z,295
2017-02-20T12:35:52.160Z,290
2017-02-20T12:36:52.154Z,330
2017-02-20T12:37:52.185Z,345
2017-02-20T12:38:52.163Z,345
2017-02-20T12:39:52.146Z,330
2017-02-20T12:40:52.141Z,310
2017-02-20T12:41:51.735Z,300
2017-02-20T12:42:52.151Z,290
2017-02-20T12:43:52.141Z,280
2017-02-20T12:44:52.090Z,265
2017-02-20T12:45:52.113Z,255
2017-02-20T12:46:52.100Z,255
2017-02-20T12:47:52.101Z,250
2017-02-20T12:48:51.714Z,255
2017-02-20T12:49:51.713Z,265
2017-02-20T12:50:52.068Z,280
2017-02-20T12:51:52.084Z,290
2017-02-20T12:52:52.060Z,305
2017-02-20T12:53:52.068Z,320
2017-02-20T12:54:52.047Z,320
2017-02-20T12:55:52.049Z,325
2017-02-20T12:56:51.652Z,325
2017-02-20T12:57:52.046Z,330
2017-02-20T12:58:52.015Z,360
2017-02-20T12:59:52.029Z,360
2017-02-20T13:00:52.004Z,350
2017-02-20T13:01:51.631Z,365
2017-02-20T13:02:51.984Z,375
2017-02-20T13:03:52.022Z,380
2017-02-20T13:04:51.965Z,365
2017-02-20T13:05:51.992Z,360
2017-02-20T13:06:52.000Z,365
2017-02-20T13:07:52.006Z,355
2017-02-20T13:08:51.636Z,325
2017-02-20T13:09:51.973Z,320
2017-02-20T13:10:51.968Z,305
2017-02-20T13:11:51.931Z,265
2017-02-20T13:12:51.962Z,265
2017-02-20T13:13:51.939Z,250
2017-02-20T13:14:51.924Z,245
2017-02-20T13:15:51.931Z,245
2017-02-20T13:16:51.915Z,225
2017-02-20T13:17:51.928Z,230
2017-02-20T13:18:51.902Z,245
2017-02-20T13:19:51.900Z,225
2017-02-20T13:20:51.889Z,225
2017-02-20T13:21:51.914Z,240
2017-02-20T13:22:51.887Z,235
2017-02-20T13:23:51.902Z,210
2017-02-20T13:24:51.876Z,190
2017-02-20T13:25:51.896Z,180
2017-02-20T13:26:51.890Z,175
2017-02-20T13:27:51.862Z,180
2017-02-20T13:28:51.878Z,185
2017-02-20T13:29:51.857Z,195
2017-02-20T13:30:51.867Z,205
2017-02-20T13:31:51.832Z,205
2017-02-20T13:32:51.824Z,195
2017-02-20T13:33:51.433Z,180
2017-02-20T13:34:51.817Z,190
2017-02-20T13:35:51.818Z,205
2017-02-20T13:36:51.815Z,220
2017-02-20T13:37:51.800Z,210
2017-02-20T13:38:51.804Z,180
2017-02-20T13:39:51.761Z,160
2017-02-20T13:40:51.796Z,195
2017-02-20T13:41:51.779Z,230
2017-02-20T13:42:51.780Z,255
2017-02-20T13:43:51.786Z,245
2017-02-20T13:44:51.767Z,250
2017-02-20T13:45:51.755Z,240
2017-02-20T13:46:51.723Z,225
2017-02-20T13:47:51.775Z,180
2017-02-20T13:48:51.717Z,180
2017-02-20T13:49:51.737Z,210
2017-02-20T13:50:51.713Z,180
2017-02-20T13:51:51.306Z,175
2017-02-20T13:52:51.727Z,145
2017-02-20T13:53:51.731Z,165
2017-02-20T13:54:51.695Z,180
2017-02-20T13:55:51.311Z,145
2017-02-20T13:56:51.695Z,140
2017-02-20T13:57:51.681Z,125
2017-02-20T13:58:51.666Z,110
2017-02-20T13:59:50.875Z,110
2017-02-20T14:00:51.657Z,125
2017-02-20T14:01:51.662Z,135
2017-02-20T14:02:51.630Z,145
2017-02-20T14:03:51.647Z,150
2017-02-20T14:04:51.639Z,115
2017-02-20T14:05:51.232Z,110
2017-02-20T14:06:51.607Z,115
2017-02-20T14:07:51.212Z,150
2017-02-20T14:08:51.611Z,150
2017-02-20T14:09:51.626Z,165
2017-02-20T14:10:51.590Z,140
2017-02-20T14:11:51.585Z,140
2017-02-20T14:12:51.599Z,130
2017-02-20T14:13:51.173Z,115
2017-02-20T14:14:51.584Z,140